Time;durP1;ratioP1;P1;durP2;ratioP2;P2;SDS_P1;SDS_P2;PMS_P1;PMS_P2;Temp;Humidity;BMP_temperature;BMP_pressure;BME280_temperature;BME280_humidity;BME280_pressure;Samples;Min_cycle;Max_cycle;Signal;HPM_P1;HPM_P2
2022/05/08 00:01:03;;;;;;;;;23.50;21.00;;;;;16.40;64.23;101819.69;5011237;28;45411;-80
2022/05/08 00:03:29;;;;;;;;;23.25;22.75;;;;;16.29;63.98;101805.19;4990937;28;46058;-78
2022/05/08 00:05:55;;;;;;;;;25.00;23.25;;;;;16.37;63.90;101816.31;5004457;28;45673;-80
2022/05/08 00:08:20;;;;;;;;;26.25;23.50;;;;;16.38;63.99;101823.44;5002695;28;46038;-81
2022/05/08 00:10:46;;;;;;;;;27.75;26.75;;;;;16.35;64.27;101829.84;5005052;28;45235;-81
2022/05/08 00:13:11;;;;;;;;;28.50;23.00;;;;;16.22;64.26;101811.91;5004273;28;45484;-81
2022/05/08 00:15:37;;;;;;;;;26.25;23.50;;;;;16.24;64.57;101823.44;5003621;28;45397;-81
2022/05/08 00:18:03;;;;;;;;;22.75;21.50;;;;;16.20;64.37;101814.69;4992502;28;46201;-79
2022/05/08 00:20:29;;;;;;;;;22.50;22.25;;;;;16.24;64.32;101824.28;5003742;28;45543;-80
2022/05/08 00:22:54;;;;;;;;;23.25;23.25;;;;;16.15;64.30;101806.91;5004680;28;45663;-79
2022/05/08 00:25:20;;;;;;;;;26.75;24.50;;;;;16.20;64.39;101820.06;5004668;28;45484;-80
2022/05/08 00:27:45;;;;;;;;;25.25;24.25;;;;;16.20;64.38;101817.38;5002525;28;46110;-79
2022/05/08 00:30:11;;;;;;;;;24.00;22.50;;;;;16.15;64.49;101809.59;4987903;28;45623;-79
2022/05/08 00:32:36;;;;;;;;;23.25;21.50;;;;;16.07;64.79;101797.63;5005575;28;45886;-79
2022/05/08 00:35:02;;;;;;;;;26.50;21.75;;;;;16.01;65.04;101806.91;5004956;28;45453;-79
2022/05/08 00:37:28;;;;;;;;;25.50;22.75;;;;;15.90;64.89;101796.84;5005548;28;45493;-79
2022/05/08 00:39:53;;;;;;;;;27.75;26.25;;;;;15.86;65.23;101803.34;4994989;28;45915;-80
2022/05/08 00:42:18;;;;;;;;;21.75;21.00;;;;;15.88;65.76;101822.91;5010966;28;45735;-79
2022/05/08 00:44:44;;;;;;;;;25.00;23.00;;;;;15.74;65.40;101798.72;5008270;28;45571;-79
2022/05/08 00:47:09;;;;;;;;;24.00;22.50;;;;;15.79;65.86;101817.25;5011007;28;46110;-79
2022/05/08 00:49:34;;;;;;;;;18.75;18.75;;;;;15.67;65.99;101806.25;5011475;28;51954;-78
2022/05/08 00:52:00;;;;;;;;;23.25;21.00;;;;;15.73;65.95;101815.81;5011764;28;45460;-80
2022/05/08 00:54:26;;;;;;;;;25.25;23.25;;;;;15.59;66.03;101797.81;5014451;28;45573;-79
2022/05/08 00:56:53;;;;;;;;;25.25;22.75;;;;;15.64;66.14;101808.28;5014632;28;45312;-79
2022/05/08 00:59:19;;;;;;;;;25.50;24.00;;;;;15.63;66.20;101804.69;5014810;28;45672;-79
2022/05/08 01:01:44;;;;;;;;;22.25;22.25;;;;;15.49;66.31;101801.97;5014773;28;45508;-80
2022/05/08 01:04:10;;;;;;;;;24.25;23.00;;;;;15.56;66.17;101816.75;5015270;28;45603;-78
2022/05/08 01:06:35;;;;;;;;;20.25;20.25;;;;;15.54;66.48;101808.81;5015646;28;46953;-79
2022/05/08 01:09:01;;;;;;;;;26.75;25.50;;;;;15.58;66.58;101825.59;5012414;28;45416;-79
2022/05/08 01:11:27;;;;;;;;;21.25;18.75;;;;;15.56;66.39;101819.44;5015889;28;45549;-79
2022/05/08 01:13:52;;;;;;;;;21.75;21.00;;;;;15.27;66.53;101776.44;5016644;28;45529;-78
2022/05/08 01:16:20;;;;;;;;;23.00;21.75;;;;;15.51;66.50;101809.00;5015756;28;46163;-79
2022/05/08 01:18:47;;;;;;;;;19.00;17.50;;;;;15.53;66.77;101825.84;4999333;28;45541;-79
2022/05/08 01:21:18;;;;;;;;;21.50;19.25;;;;;15.49;66.96;101820.75;5015918;28;45452;-79
2022/05/08 01:23:45;;;;;;;;;26.00;20.75;;;;;15.47;66.79;101820.88;5015659;28;45747;-79
2022/05/08 01:26:11;;;;;;;;;24.75;18.25;;;;;15.34;66.85;101801.06;5015845;28;45557;-79
2022/05/08 01:28:37;;;;;;;;;24.50;22.75;;;;;15.28;66.79;101793.41;5016229;28;45516;-78
2022/05/08 01:31:03;;;;;;;;;22.25;19.25;;;;;15.30;67.19;101802.22;5015982;28;45298;-78
2022/05/08 01:33:28;;;;;;;;;19.75;19.50;;;;;15.28;67.04;101815.72;5014615;28;45481;-77
2022/05/08 01:35:53;;;;;;;;;28.75;24.50;;;;;15.21;67.26;101794.72;5012434;28;46149;-78
2022/05/08 01:38:22;;;;;;;;;23.25;18.75;;;;;15.17;67.34;101791.34;5015250;28;45541;-80
2022/05/08 01:40:50;;;;;;;;;25.00;23.00;;;;;15.20;67.59;101815.31;5016472;28;45391;-79
2022/05/08 01:43:16;;;;;;;;;26.25;24.25;;;;;15.03;67.57;101777.88;5010848;28;45512;-79
2022/05/08 01:45:41;;;;;;;;;27.75;26.50;;;;;15.08;67.36;101808.84;5015069;28;45879;-80
2022/05/08 01:48:22;;;;;;;;;23.50;22.50;;;;;15.11;67.71;101808.66;5015484;28;47935;-79
2022/05/08 01:50:54;;;;;;;;;22.75;20.25;;;;;15.13;67.80;101822.84;5010949;28;45452;-78
2022/05/08 01:53:25;;;;;;;;;24.00;23.00;;;;;15.10;67.52;101811.44;5015140;28;45565;-80
2022/05/08 01:55:55;;;;;;;;;20.50;20.00;;;;;15.10;67.63;101811.44;5016293;28;45562;-80
2022/05/08 01:58:26;;;;;;;;;24.00;20.50;;;;;15.11;67.71;101819.41;4999029;28;45520;-80
2022/05/08 02:00:52;;;;;;;;;27.50;24.00;;;;;14.90;68.06;101785.78;5015035;28;45981;-79
2022/05/08 02:03:19;;;;;;;;;23.00;22.50;;;;;15.06;67.89;101810.75;4997849;28;45553;-80
2022/05/08 02:05:45;;;;;;;;;24.25;24.25;;;;;15.02;68.06;101809.19;5014810;28;46174;-80
2022/05/08 02:08:11;;;;;;;;;27.25;24.00;;;;;14.89;68.31;101787.59;5015233;28;45405;-80
2022/05/08 02:10:37;;;;;;;;;24.75;22.00;;;;;14.94;68.39;101803.41;5015720;28;45371;-79
2022/05/08 02:13:04;;;;;;;;;28.00;26.00;;;;;14.94;68.28;101806.09;5015119;28;45823;-79
2022/05/08 02:15:30;;;;;;;;;26.50;25.50;;;;;14.95;68.35;101804.28;5014685;28;46217;-80
2022/05/08 02:17:59;;;;;;;;;23.50;21.25;;;;;14.91;68.28;101800.88;5015118;28;48249;-80
2022/05/08 02:20:24;;;;;;;;;23.25;23.25;;;;;14.84;68.24;101788.78;4993067;28;45471;-80
2022/05/08 02:22:51;;;;;;;;;24.75;23.00;;;;;14.92;68.22;101805.31;5015597;28;45504;-80
2022/05/08 02:25:17;;;;;;;;;26.25;24.75;;;;;14.91;68.14;101814.28;5015278;28;45503;-80
2022/05/08 02:27:44;;;;;;;;;28.25;25.00;;;;;14.77;68.28;101790.97;5009720;28;45407;-80
2022/05/08 02:30:11;;;;;;;;;21.50;21.25;;;;;14.80;68.44;101797.97;5014177;28;45491;-80
2022/05/08 02:32:37;;;;;;;;;23.75;23.00;;;;;14.89;68.39;101813.53;5013367;28;45527;-80
2022/05/08 02:35:06;;;;;;;;;27.75;24.00;;;;;14.69;68.72;101796.75;4995406;28;46032;-80
2022/05/08 02:37:31;;;;;;;;;28.00;24.50;;;;;14.73;68.49;101810.00;5014835;28;45425;-79
2022/05/08 02:39:57;;;;;;;;;26.50;23.50;;;;;14.76;68.78;101820.53;5015192;28;45450;-80
2022/05/08 02:42:22;;;;;;;;;26.75;23.50;;;;;14.72;68.76;101819.88;5014512;28;45766;-80
2022/05/08 02:44:47;;;;;;;;;26.50;23.75;;;;;14.36;68.89;101764.66;5014361;28;45739;-80
2022/05/08 02:47:13;;;;;;;;;25.75;25.25;;;;;14.57;69.39;101805.47;5014404;28;45637;-80
2022/05/08 02:49:38;;;;;;;;;29.25;27.75;;;;;14.61;69.13;101809.72;5015371;28;45372;-80
2022/05/08 02:52:04;;;;;;;;;29.00;25.75;;;;;14.57;69.33;101823.38;5014557;28;45406;-80
2022/05/08 02:54:29;;;;;;;;;29.25;28.25;;;;;14.54;68.75;101816.38;5014331;28;45524;-80
2022/05/08 02:59:38;;;;;;;;;27.75;24.25;;;;;14.13;70.48;101792.69;5014295;28;45485;-80
2022/05/08 03:02:04;;;;;;;;;21.50;19.50;;;;;14.21;70.48;101819.06;5009886;28;45369;-80
2022/05/08 03:04:29;;;;;;;;;27.25;26.25;;;;;14.20;70.67;101817.34;5014949;28;45494;-80
2022/05/08 03:06:55;;;;;;;;;28.00;26.50;;;;;14.17;70.61;101836.25;5014332;28;45686;-80
2022/05/08 03:09:20;;;;;;;;;30.00;26.50;;;;;14.13;70.97;101827.50;5016522;28;45546;-80
2022/05/08 03:11:45;;;;;;;;;30.50;27.75;;;;;14.03;71.20;101812.88;5014065;28;45599;-80
2022/05/08 03:14:11;;;;;;;;;27.50;25.75;;;;;14.02;70.73;101811.13;5014632;28;56857;-80
2022/05/08 03:16:37;;;;;;;;;28.50;27.50;;;;;14.12;70.82;101827.56;5014838;28;45531;-80
2022/05/08 03:19:02;;;;;;;;;27.25;25.50;;;;;14.03;71.26;101828.94;5012153;28;50366;-80
2022/05/08 03:21:27;;;;;;;;;31.25;27.00;;;;;13.82;71.28;101810.38;5013621;28;45635;-80
2022/05/08 03:23:53;;;;;;;;;31.75;29.50;;;;;13.87;71.44;101812.81;5013850;28;46290;-80
2022/05/08 03:26:19;;;;;;;;;33.25;29.75;;;;;13.72;71.85;101806.47;5013995;28;45394;-80
2022/05/08 03:28:46;;;;;;;;;35.50;33.00;;;;;13.83;72.04;101830.88;5015855;28;45597;-80
2022/05/08 03:31:12;;;;;;;;;41.75;33.50;;;;;13.81;72.48;101838.13;5013667;28;45455;-80
2022/05/08 03:33:38;;;;;;;;;36.50;31.50;;;;;13.83;72.19;101827.34;4995843;28;45906;-80
2022/05/08 03:36:05;;;;;;;;;37.75;32.25;;;;;13.80;72.37;101828.34;5013796;28;45431;-80
2022/05/08 03:38:30;;;;;;;;;40.00;34.25;;;;;13.70;72.96;101820.88;4998087;28;45432;-80
2022/05/08 03:40:56;;;;;;;;;36.50;33.00;;;;;13.73;72.70;101828.75;5016064;28;45289;-80
2022/05/08 03:43:22;;;;;;;;;37.75;32.25;;;;;13.62;72.46;101821.28;5013374;28;47905;-80
2022/05/08 03:45:51;;;;;;;;;48.50;39.25;;;;;13.36;73.18;101785.16;5015102;28;45289;-80
2022/05/08 03:48:19;;;;;;;;;37.75;34.25;;;;;13.62;73.18;101829.31;5015150;28;45316;-80
2022/05/08 03:50:45;;;;;;;;;42.25;34.75;;;;;13.58;73.03;101830.41;5015132;28;45346;-80
2022/05/08 03:53:11;;;;;;;;;47.00;38.50;;;;;13.62;73.19;101829.31;5014975;28;46096;-80
2022/05/08 03:55:36;;;;;;;;;46.75;36.50;;;;;13.58;73.04;101819.69;5015478;28;45357;-81
2022/05/08 03:58:02;;;;;;;;;45.25;36.50;;;;;13.51;73.19;101805.75;5014900;28;45554;-80
2022/05/08 04:00:28;;;;;;;;;47.75;39.50;;;;;13.52;73.28;101820.88;5014954;28;45719;-80
2022/05/08 04:02:54;;;;;;;;;46.25;38.25;;;;;13.61;73.59;101832.91;5014534;28;45444;-80
2022/05/08 04:05:19;;;;;;;;;46.00;38.50;;;;;13.61;73.70;101840.94;5014092;28;45492;-80
2022/05/08 04:07:45;;;;;;;;;45.00;39.00;;;;;13.53;73.41;101819.94;5014790;28;45429;-80
2022/05/08 04:10:12;;;;;;;;;45.00;38.25;;;;;13.63;73.45;101841.72;5012965;28;45429;-80
2022/05/08 04:12:38;;;;;;;;;48.25;39.25;;;;;13.60;73.74;101842.75;4996673;28;48205;-80
2022/05/08 04:15:05;;;;;;;;;48.00;40.00;;;;;13.59;73.95;101842.84;5014715;28;45445;-81
2022/05/08 04:17:32;;;;;;;;;43.00;36.25;;;;;13.64;73.40;101849.69;4999176;28;45425;-81
2022/05/08 04:19:57;;;;;;;;;48.25;37.25;;;;;13.69;73.40;101857.47;4965990;28;45485;-80
2022/05/08 04:25:08;;;;;;;;;49.25;38.75;;;;;13.60;74.17;101855.28;5014485;28;45247;-80
2022/05/08 04:27:35;;;;;;;;;51.50;41.50;;;;;13.63;73.69;101847.94;5016043;28;45226;-80
2022/05/08 04:30:01;;;;;;;;;46.50;40.25;;;;;13.54;73.65;101834.16;5018152;28;45520;-80
2022/05/08 04:32:27;;;;;;;;;49.75;39.50;;;;;13.66;73.73;101852.25;5000194;28;47990;-80
2022/05/08 04:34:52;;;;;;;;;54.25;43.00;;;;;13.55;74.10;101839.44;5018493;28;45336;-80
2022/05/08 04:37:17;;;;;;;;;55.25;43.50;;;;;13.58;74.11;101847.31;5017967;28;45364;-79
2022/05/08 04:39:42;;;;;;;;;51.00;42.00;;;;;13.52;74.21;101844.97;5017928;28;45384;-80
2022/05/08 04:42:08;;;;;;;;;56.00;42.50;;;;;13.48;74.43;101851.41;4998756;28;57956;-80
2022/05/08 04:44:33;;;;;;;;;52.50;41.50;;;;;13.27;74.84;101805.19;5017585;28;45561;-84
2022/05/08 04:46:59;;;;;;;;;54.75;43.00;;;;;13.49;74.04;101845.09;5018494;28;45504;-85
2022/05/08 04:49:24;;;;;;;;;48.75;39.00;;;;;13.62;74.36;101859.59;5017194;28;49040;-84
2022/05/08 04:51:49;;;;;;;;;51.50;42.75;;;;;13.48;74.30;101843.38;5017304;28;46405;-84
2022/05/08 04:54:15;;;;;;;;;50.25;40.75;;;;;13.52;74.63;101847.66;5017559;28;45733;-84
2022/05/08 04:56:40;;;;;;;;;53.75;43.00;;;;;13.59;74.32;101862.44;5017376;28;45622;-84
2022/05/08 04:59:06;;;;;;;;;47.75;39.50;;;;;13.47;74.86;101857.72;5018060;28;45503;-83
2022/05/08 05:01:31;;;;;;;;;46.75;39.00;;;;;13.51;74.76;101872.63;5017815;28;47146;-85
2022/05/08 05:03:57;;;;;;;;;55.25;44.50;;;;;13.58;74.33;101883.91;5017196;28;48703;-84
2022/05/08 05:06:22;;;;;;;;;51.00;41.75;;;;;13.60;74.44;101887.38;5017575;28;45326;-84
2022/05/08 05:08:47;;;;;;;;;54.25;44.00;;;;;13.51;74.34;101872.63;4999722;28;45301;-80
2022/05/08 05:11:13;;;;;;;;;48.50;40.50;;;;;13.55;74.21;101873.38;5016928;28;61043;-79
2022/05/08 05:13:38;;;;;;;;;46.50;38.75;;;;;13.69;74.04;101888.72;5017819;28;45597;-80
2022/05/08 05:16:04;;;;;;;;;55.75;42.50;;;;;13.71;73.98;101885.03;5017464;28;45427;-80
2022/05/08 05:18:30;;;;;;;;;54.25;42.75;;;;;13.67;73.88;101877.25;5017296;28;45385;-80
2022/05/08 05:20:55;;;;;;;;;49.75;40.25;;;;;13.83;73.84;101896.94;5017185;28;45372;-80
2022/05/08 05:23:20;;;;;;;;;50.50;41.75;;;;;13.76;73.67;101887.47;5017234;28;45472;-79
2022/05/08 05:25:46;;;;;;;;;53.50;42.25;;;;;13.73;73.93;101874.22;5017949;28;45456;-80
2022/05/08 05:28:11;;;;;;;;;49.50;39.50;;;;;13.80;73.35;101897.06;5015739;28;45462;-80
2022/05/08 05:30:36;;;;;;;;;50.50;42.00;;;;;13.95;73.35;101903.44;5017062;28;45408;-79
2022/05/08 05:33:02;;;;;;;;;53.00;41.75;;;;;13.76;73.31;101887.47;5017148;28;45707;-80
2022/05/08 05:35:27;;;;;;;;;50.00;42.00;;;;;13.90;73.39;101911.69;5017309;28;45469;-80
2022/05/08 05:37:52;;;;;;;;;53.25;42.50;;;;;13.86;73.84;101910.16;5017577;28;45413;-80
2022/05/08 05:40:18;;;;;;;;;53.00;43.75;;;;;13.97;73.53;101914.94;5016830;28;45352;-80
2022/05/08 05:42:43;;;;;;;;;50.00;41.75;;;;;13.92;73.47;101911.63;5016846;28;46710;-80
2022/05/08 05:45:09;;;;;;;;;47.25;38.25;;;;;13.98;73.84;101920.22;5016764;28;45425;-80
2022/05/08 05:47:49;;;;;;;;;49.25;40.00;;;;;13.96;73.99;101922.09;5017180;28;45458;-79
2022/05/08 05:50:22;;;;;;;;;52.25;42.00;;;;;13.72;73.18;101867.16;4999098;28;46226;-80
2022/05/08 05:52:49;;;;;;;;;49.25;40.50;;;;;13.95;72.83;101914.13;5016071;28;45240;-80
2022/05/08 05:55:15;;;;;;;;;54.25;42.50;;;;;13.96;73.22;101918.56;5016677;28;45444;-81
2022/05/08 05:57:41;;;;;;;;;51.25;41.00;;;;;13.96;73.71;101910.53;5016447;28;45544;-80
2022/05/08 06:00:15;;;;;;;;;52.50;42.75;;;;;14.05;73.21;101924.31;5016459;28;45889;-81
2022/05/08 06:02:43;;;;;;;;;53.25;43.75;;;;;13.99;73.44;101929.09;4984538;28;46930;-85
2022/05/08 06:05:09;;;;;;;;;57.25;44.50;;;;;13.95;73.64;101925.75;5016901;28;45478;-84
2022/05/08 06:07:36;;;;;;;;;55.00;42.25;;;;;14.06;73.36;101936.75;5017154;28;45223;-85
2022/05/08 06:10:05;;;;;;;;;50.50;40.25;;;;;14.05;73.32;101934.16;5016342;28;46135;-85
2022/05/08 06:12:30;;;;;;;;;50.50;40.50;;;;;13.96;73.46;101914.06;5016398;28;45420;-86
2022/05/08 06:14:55;;;;;;;;;51.50;41.50;;;;;14.10;73.10;101926.75;5016592;28;46385;-85
2022/05/08 06:17:21;;;;;;;;;52.75;42.00;;;;;14.04;72.64;101908.31;5014477;28;45695;-86
2022/05/08 06:19:46;;;;;;;;;54.50;45.00;;;;;14.22;72.74;101942.19;5015467;28;45410;-85
2022/05/08 06:22:12;;;;;;;;;50.00;40.75;;;;;14.20;72.90;101935.19;5014313;28;45421;-85
2022/05/08 06:24:38;;;;;;;;;47.50;39.75;;;;;14.10;73.11;101937.47;5016078;28;46050;-84
2022/05/08 06:27:04;;;;;;;;;56.75;44.50;;;;;14.20;72.93;101937.84;5016376;28;45372;-83
2022/05/08 06:29:30;;;;;;;;;49.00;40.75;;;;;14.19;72.75;101942.34;5000201;28;46011;-84
2022/05/08 06:31:56;;;;;;;;;50.75;41.00;;;;;14.13;72.77;101920.38;5015959;28;45515;-85
2022/05/08 06:34:21;;;;;;;;;56.25;44.25;;;;;14.32;72.67;101941.72;5016168;28;45562;-87
2022/05/08 06:36:46;;;;;;;;;54.50;41.50;;;;;14.31;72.48;101946.19;5015952;28;45417;-85
2022/05/08 06:39:13;;;;;;;;;51.25;42.00;;;;;14.13;72.49;101912.34;5015746;28;45707;-86
2022/05/08 06:41:39;;;;;;;;;52.25;41.75;;;;;14.37;72.61;101951.22;5015978;28;45607;-86
2022/05/08 06:44:05;;;;;;;;;48.50;39.50;;;;;14.38;72.57;101946.72;5016019;28;45405;-84
2022/05/08 06:46:32;;;;;;;;;52.75;40.75;;;;;14.40;72.31;101950.19;5014970;28;45741;-84
2022/05/08 06:49:00;;;;;;;;;49.75;39.75;;;;;14.35;72.26;101946.91;5014593;28;45516;-84
2022/05/08 06:51:26;;;;;;;;;50.00;41.25;;;;;14.32;72.27;101957.78;5014223;28;45296;-85
2022/05/08 06:53:52;;;;;;;;;51.25;41.00;;;;;14.30;72.47;101949.81;5015264;28;45436;-85
2022/05/08 06:56:17;;;;;;;;;52.00;41.75;;;;;14.31;72.53;101946.19;5014275;28;45367;-86
2022/05/08 07:01:38;;;;;;;;;52.75;41.25;;;;;14.39;71.82;101952.00;5013655;28;45654;-84
2022/05/08 07:04:05;;;;;;;;;49.25;39.50;;;;;14.36;72.14;101954.88;5009820;28;45505;-85
2022/05/08 07:06:31;;;;;;;;;49.50;40.75;;;;;14.35;72.19;101965.66;4990742;28;45671;-86
2022/05/08 07:08:58;;;;;;;;;52.75;42.00;;;;;14.34;72.27;101969.28;5001192;28;46102;-85
2022/05/08 07:11:23;;;;;;;;;50.50;40.00;;;;;14.31;72.33;101964.97;5010883;28;45301;-84
2022/05/08 07:13:49;;;;;;;;;48.00;39.50;;;;;14.30;72.55;101973.91;5015832;28;45338;-86
2022/05/08 07:16:14;;;;;;;;;52.25;39.25;;;;;14.34;72.41;101980.00;5014458;28;45533;-86
2022/05/08 07:18:39;;;;;;;;;52.75;40.75;;;;;14.37;72.56;101982.50;5015295;28;45824;-85
2022/05/08 07:21:05;;;;;;;;;48.75;40.00;;;;;14.43;72.29;101977.72;5010763;28;45321;-85
2022/05/08 07:23:31;;;;;;;;;51.50;41.00;;;;;14.36;72.02;101967.38;5015870;28;45453;-86
2022/05/08 07:25:57;;;;;;;;;47.00;37.75;;;;;14.38;72.44;101978.88;5007837;28;45670;-85
2022/05/08 07:28:22;;;;;;;;;54.00;42.00;;;;;14.40;72.27;101968.94;5015101;28;46129;-85
2022/05/08 07:30:49;;;;;;;;;49.00;40.00;;;;;14.18;71.98;101935.25;5013438;28;45229;-86
2022/05/08 07:33:16;;;;;;;;;53.25;42.50;;;;;14.47;71.93;101967.69;4993423;28;45371;-86
2022/05/08 07:38:27;;;;;;;;;45.25;37.50;;;;;14.63;71.94;101987.41;5013487;28;45921;-85
2022/05/08 07:40:52;;;;;;;;;46.75;39.25;;;;;14.58;71.81;101964.47;5007956;28;45619;-85
2022/05/08 07:43:17;;;;;;;;;49.00;39.75;;;;;14.66;71.18;101978.31;5007669;28;45454;-85
2022/05/08 07:45:43;;;;;;;;;53.00;40.25;;;;;14.72;71.37;101980.69;5011152;28;45358;-86
2022/05/08 07:48:09;;;;;;;;;48.50;39.25;;;;;14.42;71.29;101942.94;5004561;28;47093;-86
2022/05/08 07:50:34;;;;;;;;;46.50;38.50;;;;;14.72;71.42;101995.88;5013350;28;45907;-86
2022/05/08 07:52:59;;;;;;;;;51.75;39.00;;;;;14.72;71.78;101995.88;5006671;28;45400;-85
2022/05/08 07:55:25;;;;;;;;;47.50;39.00;;;;;14.75;71.57;101995.75;5011758;28;45384;-84
2022/05/08 07:57:50;;;;;;;;;49.00;40.50;;;;;14.81;71.34;101984.66;5012064;28;45653;-87
2022/05/08 08:00:16;;;;;;;;;47.50;38.50;;;;;14.79;70.90;101986.56;5014121;28;46083;-85
2022/05/08 08:02:42;;;;;;;;;46.25;36.25;;;;;14.67;70.70;101967.53;4998440;28;45493;-86
2022/05/08 08:05:07;;;;;;;;;50.50;38.50;;;;;14.85;70.68;101984.41;5002235;28;45544;-86
2022/05/08 08:07:33;;;;;;;;;46.75;39.25;;;;;14.98;70.62;101992.66;5014928;28;46364;-85
2022/05/08 08:09:58;;;;;;;;;46.00;38.25;;;;;14.98;70.50;101987.28;5013061;28;45504;-86
2022/05/08 08:12:24;;;;;;;;;45.75;39.50;;;;;15.11;70.24;102007.13;5013679;28;45520;-85
2022/05/08 08:14:49;;;;;;;;;64.00;50.25;;;;;15.03;70.35;101992.41;5014076;28;45418;-84
2022/05/08 08:17:15;;;;;;;;;48.25;39.00;;;;;14.95;70.73;101992.84;5014704;28;46281;-85
2022/05/08 08:19:40;;;;;;;;;48.25;41.00;;;;;14.86;70.38;101982.59;5015000;28;45370;-85
2022/05/08 08:22:06;;;;;;;;;51.50;40.50;;;;;15.04;70.71;102000.38;5013701;28;45423;-86
2022/05/08 08:24:32;;;;;;;;;53.50;41.75;;;;;15.12;70.00;102002.63;5014232;28;45481;-84
2022/05/08 08:26:57;;;;;;;;;47.25;38.50;;;;;15.15;69.97;102009.66;5014270;28;45495;-86
2022/05/08 08:29:22;;;;;;;;;48.00;38.75;;;;;15.16;70.04;102006.03;5014506;28;45506;-85
2022/05/08 08:31:48;;;;;;;;;52.00;42.50;;;;;15.18;69.59;101999.63;5015253;28;45439;-84
2022/05/08 08:34:13;;;;;;;;;45.75;37.75;;;;;15.18;69.66;101998.78;5013560;28;45330;-84
2022/05/08 08:36:38;;;;;;;;;50.25;39.75;;;;;15.21;69.16;102010.19;5014135;28;46331;-84
2022/05/08 08:39:04;;;;;;;;;50.75;38.50;;;;;15.21;69.38;102001.28;5013843;28;49533;-85
2022/05/08 08:41:34;;;;;;;;;45.50;37.50;;;;;15.25;69.33;101992.97;5010753;28;45427;-86
2022/05/08 08:49:52;;;;;;;;;44.50;38.00;;;;;15.50;69.01;102005.00;5013968;28;45539;-85
2022/05/08 08:52:21;;;;;;;;;46.75;38.50;;;;;15.48;68.59;101999.72;5013559;28;45532;-85
2022/05/08 08:54:46;;;;;;;;;48.50;41.00;;;;;15.50;68.72;101991.59;5013908;28;45583;-86
2022/05/08 08:57:11;;;;;;;;;50.75;41.50;;;;;15.64;68.31;102002.41;5013901;28;45568;-84
2022/05/08 08:59:37;;;;;;;;;50.00;37.50;;;;;15.33;67.93;101934.38;5014157;28;45349;-85
2022/05/08 09:02:02;;;;;;;;;51.50;40.50;;;;;15.79;67.80;101995.31;5014478;28;45282;-85
2022/05/08 09:04:28;;;;;;;;;42.50;37.25;;;;;15.76;68.09;101982.06;5014030;28;45327;-85
2022/05/08 09:06:54;;;;;;;;;47.00;37.75;;;;;15.79;67.61;101976.50;5013943;28;45648;-85
2022/05/08 09:09:23;;;;;;;;;49.75;39.75;;;;;15.98;67.54;101997.78;5013869;28;45464;-86
2022/05/08 09:11:50;;;;;;;;;49.75;41.25;;;;;15.99;67.06;101996.81;5014247;28;45479;-86
2022/05/08 09:14:36;;;;;;;;;41.75;35.75;;;;;16.11;66.96;102001.47;5016997;28;45329;-86
2022/05/08 09:17:03;;;;;;;;;47.00;36.75;;;;;16.01;66.71;101981.50;5000018;28;46902;-86
2022/05/08 09:19:32;;;;;;;;;51.25;41.75;;;;;16.08;66.75;101987.38;5017884;28;45358;-85
2022/05/08 09:22:00;;;;;;;;;48.50;38.75;;;;;16.21;66.30;101999.13;5017279;28;45520;-86
2022/05/08 09:24:25;;;;;;;;;52.50;44.00;;;;;16.08;66.33;101980.16;5017242;28;45634;-84
2022/05/08 09:27:08;;;;;;;;;54.00;43.25;;;;;16.16;65.65;101991.34;5017255;28;45566;-84
2022/05/08 09:29:33;;;;;;;;;46.75;37.75;;;;;16.15;66.15;101989.59;5001882;28;45356;-84
2022/05/08 09:31:58;;;;;;;;;43.75;35.75;;;;;16.28;66.50;102002.28;5017976;28;45445;-87
2022/05/08 09:34:24;;;;;;;;;47.00;35.75;;;;;16.23;65.93;101985.59;5017986;28;45537;-87
2022/05/08 09:37:05;;;;;;;;;46.75;37.75;;;;;16.33;65.99;101982.28;5017662;28;45401;-86
2022/05/08 09:39:30;;;;;;;;;48.25;39.50;;;;;16.38;65.46;101982.00;4999570;28;45313;-87
2022/05/08 09:41:55;;;;;;;;;47.75;37.50;;;;;16.49;65.38;101995.63;5018475;28;45405;-86
2022/05/08 09:44:21;;;;;;;;;50.50;39.00;;;;;16.64;65.87;102009.09;5017711;28;45567;-84
2022/05/08 09:46:49;;;;;;;;;51.00;39.75;;;;;16.63;64.66;101993.94;5017370;28;45452;-85
2022/05/08 09:49:19;;;;;;;;;49.00;39.75;;;;;16.43;64.89;101960.19;5017537;28;45484;-85
2022/05/08 09:51:46;;;;;;;;;52.00;39.00;;;;;16.77;64.69;102000.19;5017423;28;45403;-85
2022/05/08 09:54:15;;;;;;;;;54.25;41.00;;;;;16.65;64.47;101971.38;5016586;28;45424;-84
2022/05/08 09:56:42;;;;;;;;;45.00;38.50;;;;;16.72;64.33;101980.78;5016876;28;45412;-84
2022/05/08 09:59:10;;;;;;;;;50.75;42.75;;;;;16.89;64.03;101997.72;5016673;28;45318;-83
2022/05/08 10:01:37;;;;;;;;;53.25;43.25;;;;;16.89;64.11;102000.41;5015988;28;45500;-84
2022/05/08 10:04:03;;;;;;;;;50.50;40.50;;;;;16.89;64.00;101986.97;5016226;28;47986;-84
2022/05/08 10:06:32;;;;;;;;;48.75;40.75;;;;;16.98;64.35;101989.06;5016078;28;46024;-84
2022/05/08 10:13:53;;;;;;;;;52.25;43.75;;;;;17.08;63.46;101992.03;5016254;28;45486;-83
2022/05/08 10:14:30;;;;;;;;;51.00;40.00;;;;;17.19;63.53;101990.38;4985116;28;45389;-85
2022/05/08 10:17:04;;;;;;;;;49.00;38.50;;;;;17.23;62.84;101985.69;5016344;28;46268;-83
2022/05/08 10:19:29;;;;;;;;;47.50;38.75;;;;;17.25;62.99;101984.63;5015531;28;45286;-84
2022/05/08 10:22:05;;;;;;;;;45.25;36.25;;;;;17.31;63.19;101986.03;5015658;28;45495;-84
2022/05/08 10:24:40;;;;;;;;;50.00;39.50;;;;;17.43;63.05;101984.38;5009054;28;45455;-86
2022/05/08 10:27:14;;;;;;;;;47.00;38.50;;;;;17.56;62.86;101982.63;5014920;28;46136;-85
2022/05/08 10:29:43;;;;;;;;;49.00;38.25;;;;;17.69;62.66;101974.59;5015747;28;45555;-87
2022/05/08 10:32:13;;;;;;;;;42.50;38.00;;;;;17.88;61.92;101995.81;5014321;28;45423;-86
2022/05/08 10:34:39;;;;;;;;;44.50;37.50;;;;;17.96;61.22;101981.81;5015347;28;45416;-87
2022/05/08 10:37:13;;;;;;;;;47.75;37.25;;;;;18.08;61.10;101983.69;5015135;28;46322;-85
2022/05/08 10:39:42;;;;;;;;;41.50;34.75;;;;;18.13;60.53;101973.44;4997389;28;45794;-87
2022/05/08 10:42:43;;;;;;;;;47.00;38.00;;;;;18.28;60.49;101969.72;5015539;28;45725;-86
2022/05/08 10:45:31;;;;;;;;;45.75;38.00;;;;;18.37;59.85;101962.81;5014981;28;45434;-87
2022/05/08 10:48:17;;;;;;;;;51.25;39.00;;;;;18.53;60.02;101976.97;5014883;28;46125;-87
2022/05/08 10:50:51;;;;;;;;;40.75;33.50;;;;;18.68;60.00;101968.75;5000943;28;45338;-87
2022/05/08 10:53:32;;;;;;;;;50.75;40.25;;;;;18.81;59.40;101968.78;5011092;28;46105;-88
2022/05/08 10:56:04;;;;;;;;;46.00;37.75;;;;;18.85;58.59;101964.88;5013778;28;45495;-87
2022/05/08 10:58:29;;;;;;;;;48.25;40.75;;;;;18.90;58.17;101973.50;5013254;28;46658;-87
2022/05/08 11:01:00;;;;;;;;;48.25;40.25;;;;;19.06;58.66;101963.34;5011985;28;45539;-88
2022/05/08 11:03:28;;;;;;;;;43.75;37.50;;;;;19.24;58.22;101961.16;5014172;28;45398;-87
2022/05/08 11:05:55;;;;;;;;;46.25;38.00;;;;;19.37;57.61;101955.72;5013493;28;45329;-87
2022/05/08 11:08:31;;;;;;;;;41.25;36.75;;;;;19.64;57.17;101962.72;5013316;28;45698;-87
2022/05/08 11:11:02;;;;;;;;;47.25;39.25;;;;;19.82;56.83;101955.97;5013485;28;45406;-87
2022/05/08 11:13:39;;;;;;;;;42.25;35.75;;;;;20.02;55.96;101959.00;5014622;28;45609;-87
2022/05/08 11:16:04;;;;;;;;;43.50;35.00;;;;;20.19;54.33;101963.97;5014886;28;45718;-87
2022/05/08 11:18:30;;;;;;;;;50.00;39.50;;;;;20.18;55.44;101954.16;5014750;28;46390;-87
2022/05/08 11:21:00;;;;;;;;;50.75;40.75;;;;;20.23;54.70;101941.13;5014364;28;45452;-87
2022/05/08 11:23:34;;;;;;;;;49.75;39.75;;;;;20.41;54.05;101963.16;5013524;28;45415;-88
2022/05/08 11:26:02;;;;;;;;;46.25;37.25;;;;;20.50;53.51;101961.59;5009698;28;45627;-87
2022/05/08 11:28:29;;;;;;;;;40.75;35.50;;;;;20.61;53.27;101965.19;5014915;28;45953;-87